Time,TemperatureF,DewpointF,PressureIn,WindDirection,WindDirectionDegrees,WindSpeedMPH,WindSpeedGustMPH,Humidity,HourlyPrecipIn,Conditions,Clouds,dailyrainin,SolarRadiationWatts/m^2,SoftwareType,DateUTC
2013-06-28 00:01:00,68.2,67.3,29.62,WSW,241,0.0,0.0,97,0.00,RA,,0.00,0.0,WeatherDisplay:10.37,2013-06-28 04:01:00,
2013-06-28 00:06:00,68.1,66.9,29.62,WSW,241,0.0,0.0,96,0.00,RA,,0.00,0.0,WeatherDisplay:10.37,2013-06-28 04:06:00,
2013-06-28 00:11:00,67.9,67.0,29.62,WSW,241,0.0,0.0,97,0.00,CLR,,0.00,0.0,WeatherDisplay:10.37,2013-06-28 04:11:00,
2013-06-28 00:16:00,67.8,66.9,29.62,WSW,241,0.0,0.0,97,0.00,CLR,,0.00,0.0,WeatherDisplay:10.37,2013-06-28 04:16:00,
2013-06-28 00:21:00,67.7,66.8,29.62,WSW,241,0.0,0.0,97,0.00,CLR,,0.00,0.0,WeatherDisplay:10.37,2013-06-28 04:21:00,
2013-06-28 00:26:00,67.6,66.7,29.62,WSW,241,0.0,0.0,97,0.00,CLR,,0.00,0.0,WeatherDisplay:10.37,2013-06-28 04:26:00,
2013-06-28 00:31:00,67.5,66.6,29.62,WSW,241,0.0,0.0,97,0.00,CLR,,0.00,0.0,WeatherDisplay:10.37,2013-06-28 04:31:00,
2013-06-28 00:36:00,67.5,66.6,29.62,WSW,241,0.0,0.0,97,0.00,CLR,,0.00,0.0,WeatherDisplay:10.37,2013-06-28 04:36:00,
2013-06-28 00:41:00,67.6,66.7,29.61,WSW,241,0.0,0.0,97,0.00,CLR,,0.00,0.0,WeatherDisplay:10.37,2013-06-28 04:41:00,
2013-06-28 00:46:00,67.6,66.7,29.61,WSW,241,0.1,1.1,97,0.00,CLR,,0.00,0.0,WeatherDisplay:10.37,2013-06-28 04:46:00,
2013-06-28 00:51:00,67.6,66.7,29.61,WSW,241,0.0,0.0,97,0.00,CLR,,0.00,0.0,WeatherDisplay:10.37,2013-06-28 04:51:00,
2013-06-28 00:56:00,67.6,66.7,29.61,WSW,241,0.0,0.0,97,0.00,CLR,,0.00,0.0,WeatherDisplay:10.37,2013-06-28 04:56:00,
2013-06-28 01:01:00,67.6,66.7,29.61,WSW,241,0.0,0.0,97,0.00,CLR,,0.00,0.0,WeatherDisplay:10.37,2013-06-28 05:01:00,
2013-06-28 01:06:00,67.7,66.8,29.61,WSW,241,0.0,0.0,97,0.00,CLR,,0.00,0.0,WeatherDisplay:10.37,2013-06-28 05:06:00,
2013-06-28 01:11:00,67.7,66.8,29.61,WSW,241,0.0,1.1,97,0.00,CLR,,0.00,0.0,WeatherDisplay:10.37,2013-06-28 05:11:00,
2013-06-28 01:16:00,67.6,66.7,29.61,WSW,241,0.0,0.0,97,0.00,CLR,,0.00,0.0,WeatherDisplay:10.37,2013-06-28 05:16:00,
2013-06-28 01:21:00,67.5,66.6,29.61,WSW,241,0.0,0.0,97,0.00,CLR,,0.00,0.0,WeatherDisplay:10.37,2013-06-28 05:21:00,
2013-06-28 01:26:00,67.6,66.7,29.61,WSW,241,0.0,0.0,97,0.00,CLR,,0.00,0.0,WeatherDisplay:10.37,2013-06-28 05:26:00,
2013-06-28 01:31:00,67.6,66.7,29.61,WSW,241,0.0,0.0,97,0.00,CLR,,0.00,0.0,WeatherDisplay:10.37,2013-06-28 05:31:00,
2013-06-28 01:36:00,67.5,66.6,29.61,WSW,241,0.0,0.0,97,0.00,CLR,,0.00,0.0,WeatherDisplay:10.37,2013-06-28 05:36:00,
2013-06-28 01:41:00,67.4,66.5,29.61,WSW,241,0.0,0.0,97,0.00,CLR,,0.00,0.0,WeatherDisplay:10.37,2013-06-28 05:41:00,
2013-06-28 01:46:00,67.3,66.4,29.61,WSW,241,0.0,0.0,97,0.00,CLR,,0.00,0.0,WeatherDisplay:10.37,2013-06-28 05:46:00,
2013-06-28 01:51:00,67.1,66.2,29.61,WSW,241,0.0,0.0,97,0.00,CLR,,0.00,0.0,WeatherDisplay:10.37,2013-06-28 05:51:00,
2013-06-28 01:56:00,67.2,66.3,29.61,WSW,241,0.0,0.0,97,0.00,CLR,,0.00,0.0,WeatherDisplay:10.37,2013-06-28 05:56:00,
2013-06-28 02:01:00,67.1,66.2,29.62,WSW,241,0.0,0.0,97,0.00,CLR,,0.00,0.0,WeatherDisplay:10.37,2013-06-28 06:01:00,
2013-06-28 02:06:00,66.9,66.0,29.61,WSW,241,0.0,0.0,97,0.00,CLR,,0.00,0.0,WeatherDisplay:10.37,2013-06-28 06:06:00,
2013-06-28 02:11:00,67.0,66.1,29.62,WSW,241,0.0,0.0,97,0.00,CLR,,0.00,0.0,WeatherDisplay:10.37,2013-06-28 06:11:00,
2013-06-28 02:16:00,66.9,66.0,29.61,WSW,241,0.0,0.0,97,0.00,CLR,,0.00,0.0,WeatherDisplay:10.37,2013-06-28 06:16:00,
2013-06-28 02:21:00,66.8,65.9,29.61,WSW,241,0.0,0.0,97,0.00,CLR,,0.00,0.0,WeatherDisplay:10.37,2013-06-28 06:21:00,
2013-06-28 02:26:00,66.7,65.8,29.60,WSW,241,0.2,0.0,97,0.00,CLR,,0.00,0.0,WeatherDisplay:10.37,2013-06-28 06:26:00,
2013-06-28 02:31:00,66.7,65.8,29.60,WSW,241,0.0,0.0,97,0.00,CLR,,0.00,0.0,WeatherDisplay:10.37,2013-06-28 06:31:00,
2013-06-28 02:36:00,66.6,66.0,29.61,WSW,241,0.0,0.0,98,0.00,CLR,,0.00,0.0,WeatherDisplay:10.37,2013-06-28 06:36:00,
2013-06-28 02:41:00,66.4,65.5,29.61,WSW,241,0.0,0.0,97,0.00,CLR,,0.00,0.0,WeatherDisplay:10.37,2013-06-28 06:41:00,
2013-06-28 02:46:00,66.4,65.8,29.61,WSW,241,0.5,1.0,98,0.00,CLR,,0.00,0.0,WeatherDisplay:10.37,2013-06-28 06:46:00,
2013-06-28 02:51:00,66.4,65.8,29.61,WSW,241,0.0,0.0,98,0.00,CLR,,0.00,0.0,WeatherDisplay:10.37,2013-06-28 06:51:00,
2013-06-28 02:56:00,66.2,65.3,29.61,WSW,241,0.0,0.0,97,0.00,CLR,,0.00,0.0,WeatherDisplay:10.37,2013-06-28 06:56:00,
2013-06-28 03:01:00,66.3,65.7,29.61,WSW,241,0.0,0.0,98,0.00,CLR,,0.00,0.0,WeatherDisplay:10.37,2013-06-28 07:01:00,
2013-06-28 03:06:00,66.2,65.3,29.61,WSW,241,0.0,0.0,97,0.00,CLR,,0.00,0.0,WeatherDisplay:10.37,2013-06-28 07:06:00,
2013-06-28 03:11:00,66.2,65.6,29.61,WSW,241,0.0,0.0,98,0.00,CLR,,0.00,0.0,WeatherDisplay:10.37,2013-06-28 07:11:00,
2013-06-28 03:16:00,66.2,65.6,29.60,WSW,241,0.0,0.0,98,0.00,CLR,,0.00,0.0,WeatherDisplay:10.37,2013-06-28 07:16:00,
2013-06-28 03:21:00,66.1,65.5,29.60,WSW,241,0.0,0.0,98,0.00,CLR,,0.00,0.0,WeatherDisplay:10.37,2013-06-28 07:21:00,
2013-06-28 03:26:00,66.0,65.4,29.60,WSW,241,0.3,0.0,98,0.00,CLR,,0.00,0.0,WeatherDisplay:10.37,2013-06-28 07:26:00,
2013-06-28 03:31:00,65.9,65.3,29.60,WSW,241,0.0,1.1,98,0.00,CLR,,0.00,0.0,WeatherDisplay:10.37,2013-06-28 07:31:00,
2013-06-28 03:36:00,65.9,65.3,29.60,WSW,241,0.0,0.0,98,0.00,CLR,,0.00,0.0,WeatherDisplay:10.37,2013-06-28 07:36:00,
2013-06-28 03:41:00,65.9,65.3,29.61,WSW,241,0.0,0.0,98,0.00,CLR,,0.00,0.0,WeatherDisplay:10.37,2013-06-28 07:41:00,
2013-06-28 03:46:00,65.8,65.2,29.60,WSW,241,0.0,0.0,98,0.00,CLR,,0.00,0.0,WeatherDisplay:10.37,2013-06-28 07:46:00,
2013-06-28 03:51:00,65.8,65.2,29.60,WSW,241,0.0,0.0,98,0.00,CLR,,0.00,0.0,WeatherDisplay:10.37,2013-06-28 07:51:00,
2013-06-28 03:56:00,65.7,65.1,29.60,WSW,241,0.0,0.0,98,0.00,CLR,,0.00,0.0,WeatherDisplay:10.37,2013-06-28 07:56:00,
2013-06-28 04:01:00,65.6,65.0,29.59,WSW,241,0.7,1.1,98,0.00,CLR,,0.00,0.0,WeatherDisplay:10.37,2013-06-28 08:01:00,
2013-06-28 04:06:00,65.4,64.8,29.59,WSW,241,0.0,0.0,98,0.00,CLR,,0.00,0.0,WeatherDisplay:10.37,2013-06-28 08:06:00,
2013-06-28 04:11:00,65.5,64.9,29.59,WSW,241,0.1,0.0,98,0.00,CLR,,0.00,0.0,WeatherDisplay:10.37,2013-06-28 08:11:00,
2013-06-28 04:16:00,65.3,64.7,29.59,WSW,241,0.0,0.0,98,0.00,CLR,,0.00,0.0,WeatherDisplay:10.37,2013-06-28 08:16:00,
2013-06-28 04:21:00,65.3,64.7,29.59,WSW,241,0.0,0.0,98,0.00,CLR,,0.00,0.0,WeatherDisplay:10.37,2013-06-28 08:21:00,
2013-06-28 04:26:00,65.2,64.6,29.59,WSW,241,0.0,0.0,98,0.00,CLR,,0.00,0.0,WeatherDisplay:10.37,2013-06-28 08:26:00,
2013-06-28 04:31:00,65.3,64.7,29.59,WSW,241,0.0,0.0,98,0.00,CLR,,0.00,0.0,WeatherDisplay:10.37,2013-06-28 08:31:00,
2013-06-28 04:36:00,65.2,64.6,29.59,WSW,241,0.0,0.0,98,0.00,CLR,,0.00,0.0,WeatherDisplay:10.37,2013-06-28 08:36:00,
2013-06-28 04:41:00,65.2,64.6,29.58,WSW,241,0.0,0.0,98,0.00,CLR,,0.00,0.0,WeatherDisplay:10.37,2013-06-28 08:41:00,
2013-06-28 04:46:00,65.2,64.6,29.58,WSW,241,0.0,1.1,98,0.00,CLR,,0.00,0.0,WeatherDisplay:10.37,2013-06-28 08:46:00,
2013-06-28 04:51:00,65.1,64.5,29.58,WSW,241,0.0,0.0,98,0.00,CLR,,0.00,0.0,WeatherDisplay:10.37,2013-06-28 08:51:00,
2013-06-28 04:56:00,64.9,64.3,29.58,WSW,241,0.0,0.0,98,0.00,CLR,,0.00,0.0,WeatherDisplay:10.37,2013-06-28 08:56:00,
2013-06-28 05:01:00,64.7,64.1,29.58,WSW,241,0.0,0.0,98,0.00,CLR,,0.00,0.0,WeatherDisplay:10.37,2013-06-28 09:01:00,
2013-06-28 05:06:00,64.6,64.0,29.59,WSW,241,0.0,0.0,98,0.00,CLR,,0.00,0.0,WeatherDisplay:10.37,2013-06-28 09:06:00,
2013-06-28 05:11:00,64.7,64.1,29.58,WSW,241,0.0,0.0,98,0.00,CLR,,0.00,0.0,WeatherDisplay:10.37,2013-06-28 09:11:00,
2013-06-28 05:16:00,64.9,64.3,29.58,WSW,241,0.0,0.0,98,0.00,CLR,,0.00,0.0,WeatherDisplay:10.37,2013-06-28 09:16:00,
2013-06-28 05:21:00,65.0,64.4,29.58,WSW,241,0.0,0.0,98,0.00,CLR,,0.00,0.0,WeatherDisplay:10.37,2013-06-28 09:21:00,
2013-06-28 05:26:00,65.2,64.6,29.58,WSW,241,0.0,0.0,98,0.00,CLR,,0.00,0.0,WeatherDisplay:10.37,2013-06-28 09:26:00,
2013-06-28 05:31:00,65.3,64.7,29.58,WSW,241,0.0,0.0,98,0.00,CLR,,0.00,0.0,WeatherDisplay:10.37,2013-06-28 09:31:00,
2013-06-28 05:36:00,65.4,64.8,29.58,WSW,241,0.0,0.0,98,0.00,CLR,,0.00,0.0,WeatherDisplay:10.37,2013-06-28 09:36:00,
2013-06-28 05:41:00,65.5,64.9,29.58,WSW,241,0.0,0.0,98,0.00,CLR,,0.00,0.0,WeatherDisplay:10.37,2013-06-28 09:41:00,
2013-06-28 05:46:00,65.5,64.9,29.58,WSW,241,0.3,0.0,98,0.00,CLR,,0.00,0.0,WeatherDisplay:10.37,2013-06-28 09:46:00,
2013-06-28 05:51:00,65.6,65.0,29.58,WSW,241,0.0,1.1,98,0.00,CLR,,0.00,0.0,WeatherDisplay:10.37,2013-06-28 09:51:00,
2013-06-28 05:56:00,65.7,65.1,29.58,WSW,241,1.2,2.3,98,0.00,CLR,,0.00,0.0,WeatherDisplay:10.37,2013-06-28 09:56:00,
2013-06-28 06:01:00,65.8,65.2,29.58,WSW,241,1.4,3.0,98,0.00,CLR,,0.00,0.0,WeatherDisplay:10.37,2013-06-28 10:01:00,
2013-06-28 06:06:00,65.7,65.1,29.58,WSW,240,1.5,3.5,98,0.00,CLR,,0.00,0.0,WeatherDisplay:10.37,2013-06-28 10:06:00,
2013-06-28 06:11:00,65.7,65.1,29.58,South,175,0.4,3.5,98,0.00,BKN,,0.00,5.0,WeatherDisplay:10.37,2013-06-28 10:11:00,
2013-06-28 06:16:00,65.7,65.1,29.58,South,175,0.2,1.1,98,0.00,BKN,,0.00,9.0,WeatherDisplay:10.37,2013-06-28 10:16:00,
2013-06-28 06:21:00,65.8,65.2,29.58,South,175,0.0,1.1,98,0.00,BKN,,0.00,11.0,WeatherDisplay:10.37,2013-06-28 10:21:00,
2013-06-28 06:26:00,65.7,65.1,29.57,South,175,0.0,0.0,98,0.00,BKN,,0.00,19.0,WeatherDisplay:10.37,2013-06-28 10:26:00,
2013-06-28 06:31:00,65.8,65.2,29.58,South,175,0.0,0.0,98,0.00,BKN,,0.00,16.0,WeatherDisplay:10.37,2013-06-28 10:31:00,
2013-06-28 06:36:00,65.8,65.2,29.58,South,175,0.0,0.0,98,0.00,BKN,,0.00,18.0,WeatherDisplay:10.37,2013-06-28 10:36:00,
2013-06-28 06:41:00,65.9,65.3,29.58,South,175,0.0,0.0,98,0.00,BKN,,0.00,21.0,WeatherDisplay:10.37,2013-06-28 10:41:00,
2013-06-28 06:46:00,66.0,65.4,29.58,South,175,0.1,2.3,98,0.00,BKN,,0.00,32.0,WeatherDisplay:10.37,2013-06-28 10:46:00,
2013-06-28 06:51:00,66.1,65.5,29.58,South,175,0.0,0.0,98,0.00,BKN,,0.00,33.0,WeatherDisplay:10.37,2013-06-28 10:51:00,
2013-06-28 06:56:00,66.1,65.5,29.57,South,175,0.0,0.0,98,0.00,BKN,,0.00,30.0,WeatherDisplay:10.37,2013-06-28 10:56:00,
2013-06-28 07:01:00,66.2,65.6,29.57,South,175,0.3,0.0,98,0.00,BKN,,0.00,33.0,WeatherDisplay:10.37,2013-06-28 11:01:00,
2013-06-28 07:06:00,66.2,65.6,29.57,South,175,0.0,2.3,98,0.00,BKN,,0.00,25.0,WeatherDisplay:10.37,2013-06-28 11:06:00,
2013-06-28 07:11:00,66.2,65.6,29.57,SSW,210,1.7,3.5,98,0.00,BKN,,0.00,30.0,WeatherDisplay:10.37,2013-06-28 11:11:00,
2013-06-28 07:16:00,66.2,65.6,29.57,SW,227,0.8,3.5,98,0.00,BKN,,0.00,49.0,WeatherDisplay:10.37,2013-06-28 11:16:00,
2013-06-28 07:21:00,66.3,65.7,29.57,SW,227,0.6,2.3,98,0.00,BKN,,0.00,54.0,WeatherDisplay:10.37,2013-06-28 11:21:00,
2013-06-28 07:26:00,66.3,65.7,29.57,SW,227,1.8,3.5,98,0.00,BKN,,0.00,49.0,WeatherDisplay:10.37,2013-06-28 11:26:00,
2013-06-28 07:31:00,66.3,65.7,29.57,SW,236,0.1,1.1,98,0.00,BKN,,0.00,26.0,WeatherDisplay:10.37,2013-06-28 11:31:00,
2013-06-28 07:36:00,66.2,65.6,29.57,SW,236,1.0,2.3,98,0.00,BKN,,0.00,40.0,WeatherDisplay:10.37,2013-06-28 11:36:00,
2013-06-28 07:41:00,66.3,65.7,29.57,WSW,237,1.4,2.3,98,0.00,BKN,,0.00,53.0,WeatherDisplay:10.37,2013-06-28 11:41:00,
2013-06-28 07:46:00,66.5,65.9,29.57,WSW,237,0.9,3.5,98,0.00,BKN,,0.00,102.0,WeatherDisplay:10.37,2013-06-28 11:46:00,
2013-06-28 07:51:00,66.7,66.1,29.56,SW,229,0.4,2.3,98,0.00,BKN,,0.00,139.0,WeatherDisplay:10.37,2013-06-28 11:51:00,
2013-06-28 07:56:00,66.8,66.2,29.57,SW,229,0.0,1.1,98,0.00,BKN,,0.00,69.0,WeatherDisplay:10.37,2013-06-28 11:56:00,
2013-06-28 08:01:00,66.9,66.3,29.57,SW,229,0.1,2.3,98,0.00,BKN,,0.00,116.0,WeatherDisplay:10.37,2013-06-28 12:01:00,
2013-06-28 08:06:00,67.0,66.4,29.57,SW,229,0.7,1.1,98,0.00,BKN,,0.00,74.0,WeatherDisplay:10.37,2013-06-28 12:06:00,
2013-06-28 08:11:00,67.1,66.5,29.57,SW,232,1.4,3.5,98,0.00,BKN,,0.00,123.0,WeatherDisplay:10.37,2013-06-28 12:11:00,
2013-06-28 08:16:00,67.3,66.7,29.57,SW,232,0.7,1.1,98,0.00,BKN,,0.00,53.0,WeatherDisplay:10.37,2013-06-28 12:16:00,
2013-06-28 08:21:00,67.3,66.7,29.57,SW,232,0.0,0.0,98,0.00,BKN,,0.00,40.0,WeatherDisplay:10.37,2013-06-28 12:21:00,
2013-06-28 08:26:00,67.5,66.9,29.57,SW,233,1.2,2.3,98,0.00,BKN,,0.00,118.0,WeatherDisplay:10.37,2013-06-28 12:26:00,
2013-06-28 08:31:00,67.6,67.0,29.57,West,277,0.9,3.5,98,0.00,BKN,,0.00,169.0,WeatherDisplay:10.37,2013-06-28 12:31:00,
2013-06-28 08:36:00,67.7,67.1,29.57,West,277,0.5,3.5,98,0.00,BKN,,0.00,185.0,WeatherDisplay:10.37,2013-06-28 12:36:00,
2013-06-28 08:41:00,68.2,67.6,29.57,West,277,0.5,1.1,98,0.00,SCT,,0.00,221.0,WeatherDisplay:10.37,2013-06-28 12:41:00,
2013-06-28 08:46:00,68.4,67.8,29.57,WSW,242,1.9,3.5,98,0.00,CLR,,0.00,360.0,WeatherDisplay:10.37,2013-06-28 12:46:00,
2013-06-28 08:51:00,68.8,68.2,29.56,WSW,243,1.8,3.5,98,0.00,BKN,,0.00,121.0,WeatherDisplay:10.37,2013-06-28 12:51:00,
2013-06-28 08:56:00,68.9,68.0,29.56,WSW,241,1.3,3.5,97,0.00,FEW,,0.00,367.0,WeatherDisplay:10.37,2013-06-28 12:56:00,
2013-06-28 09:01:00,69.3,68.4,29.56,SSW,194,2.4,3.5,97,0.00,SCT,,0.00,188.0,WeatherDisplay:10.37,2013-06-28 13:01:00,
2013-06-28 09:06:00,69.5,68.3,29.56,WSW,255,2.5,3.5,96,0.00,BKN,,0.00,174.0,WeatherDisplay:10.37,2013-06-28 13:06:00,
2013-06-28 09:11:00,69.6,68.4,29.56,WSW,250,1.1,2.3,96,0.00,BKN,,0.00,174.0,WeatherDisplay:10.37,2013-06-28 13:11:00,
2013-06-28 09:16:00,70.1,68.9,29.56,WSW,252,2.0,3.5,96,0.00,BKN,,0.00,269.0,WeatherDisplay:10.37,2013-06-28 13:16:00,
2013-06-28 09:21:00,70.6,69.1,29.56,WSW,258,3.8,7.0,95,0.00,BKN,,0.00,248.0,WeatherDisplay:10.37,2013-06-28 13:21:00,
2013-06-28 09:26:00,71.4,69.6,29.56,West,271,1.5,3.5,94,0.00,SCT,,0.00,151.0,WeatherDisplay:10.37,2013-06-28 13:26:00,
2013-06-28 09:31:00,71.3,68.9,29.56,WNW,285,4.3,6.9,92,0.00,BKN,,0.00,165.0,WeatherDisplay:10.37,2013-06-28 13:31:00,
2013-06-28 09:36:00,71.9,69.1,29.56,WSW,250,3.7,4.6,91,0.00,BKN,,0.00,243.0,WeatherDisplay:10.37,2013-06-28 13:36:00,
2013-06-28 09:41:00,72.1,69.3,29.55,WSW,242,3.2,5.8,91,0.00,CLR,,0.00,580.0,WeatherDisplay:10.37,2013-06-28 13:41:00,
2013-06-28 09:46:00,72.4,69.6,29.55,West,270,1.1,2.3,91,0.00,BKN,,0.00,288.0,WeatherDisplay:10.37,2013-06-28 13:46:00,
2013-06-28 09:51:00,72.7,69.3,29.55,WSW,253,3.0,5.0,89,0.00,CLR,,0.00,682.0,WeatherDisplay:10.37,2013-06-28 13:51:00,
2013-06-28 09:56:00,73.1,69.3,29.55,West,259,3.7,5.8,88,0.00,CLR,,0.00,742.0,WeatherDisplay:10.37,2013-06-28 13:56:00,
2013-06-28 10:01:00,73.8,69.0,29.55,WNW,297,6.2,9.2,85,0.00,BKN,,0.00,123.0,WeatherDisplay:10.37,2013-06-28 14:01:00,
2013-06-28 10:06:00,73.6,69.2,29.55,WNW,296,4.3,5.8,86,0.00,CLR,,0.00,701.0,WeatherDisplay:10.37,2013-06-28 14:06:00,
2013-06-28 10:11:00,74.0,69.2,29.55,West,279,4.5,5.8,85,0.00,CLR,,0.00,772.0,WeatherDisplay:10.37,2013-06-28 14:11:00,
2013-06-28 10:16:00,74.2,69.4,29.55,WNW,294,2.3,4.6,85,0.00,BKN,,0.00,139.0,WeatherDisplay:10.37,2013-06-28 14:16:00,
2013-06-28 10:21:00,74.7,69.5,29.55,West,261,3.5,6.9,84,0.00,BKN,,0.00,174.0,WeatherDisplay:10.37,2013-06-28 14:21:00,
2013-06-28 10:26:00,74.3,68.1,29.55,West,263,4.7,6.9,81,0.00,BKN,,0.00,153.0,WeatherDisplay:10.37,2013-06-28 14:26:00,
2013-06-28 10:31:00,74.0,67.4,29.55,WNW,286,5.9,11.5,80,0.00,CLR,,0.00,707.0,WeatherDisplay:10.37,2013-06-28 14:31:00,
2013-06-28 10:37:00,74.5,67.9,29.55,WNW,294,3.5,5.8,80,0.00,CLR,,0.00,765.0,WeatherDisplay:10.37,2013-06-28 14:37:00,
2013-06-28 10:42:00,75.4,68.8,29.55,WNW,298,5.8,8.1,80,0.00,CLR,,0.00,795.0,WeatherDisplay:10.37,2013-06-28 14:42:00,
2013-06-28 10:47:00,75.9,69.3,29.55,West,261,5.1,9.2,80,0.00,CLR,,0.00,853.0,WeatherDisplay:10.37,2013-06-28 14:47:00,
2013-06-28 10:52:00,76.1,67.6,29.54,West,277,7.3,11.5,75,0.00,BKN,,0.00,176.0,WeatherDisplay:10.37,2013-06-28 14:52:00,
2013-06-28 10:57:00,75.7,68.0,29.54,NW,309,5.6,8.1,77,0.00,BKN,,0.00,831.0,WeatherDisplay:10.37,2013-06-28 14:57:00,
2013-06-28 11:02:00,76.3,68.9,29.54,NW,310,2.7,8.1,78,0.00,CLR,,0.00,875.0,WeatherDisplay:10.37,2013-06-28 15:02:00,
2013-06-28 11:07:00,76.2,66.9,29.54,NW,310,5.1,11.5,73,0.00,CLR,,0.00,853.0,WeatherDisplay:10.37,2013-06-28 15:07:00,
2013-06-28 11:12:00,76.0,67.9,29.54,WNW,294,4.7,9.2,76,0.00,FEW,,0.00,687.0,WeatherDisplay:10.37,2013-06-28 15:12:00,
2013-06-28 11:17:00,76.3,68.2,29.54,WNW,294,4.7,7.0,76,0.00,BKN,,0.00,415.0,WeatherDisplay:10.37,2013-06-28 15:17:00,
2013-06-28 11:22:00,76.2,68.1,29.54,West,273,5.0,5.8,76,0.00,BKN,,0.00,415.0,WeatherDisplay:10.37,2013-06-28 15:22:00,
2013-06-28 11:27:00,76.6,67.7,29.54,NW,326,3.5,9.2,74,0.00,BKN,,0.00,865.0,WeatherDisplay:10.37,2013-06-28 15:27:00,
2013-06-28 11:32:00,77.2,68.3,29.54,West,280,5.9,9.2,74,0.00,CLR,,0.00,949.0,WeatherDisplay:10.37,2013-06-28 15:32:00,
2013-06-28 11:37:00,77.2,68.7,29.54,NW,306,4.5,6.9,75,0.00,CLR,,0.00,260.0,WeatherDisplay:10.37,2013-06-28 15:37:00,
2013-06-28 11:42:00,77.2,68.7,29.54,WNW,288,5.2,9.2,75,0.00,BKN,,0.00,174.0,WeatherDisplay:10.37,2013-06-28 15:42:00,
2013-06-28 11:47:00,76.8,67.1,29.54,WNW,293,6.3,11.5,72,0.00,CLR,,0.00,942.0,WeatherDisplay:10.37,2013-06-28 15:47:00,
2013-06-28 11:52:00,77.4,68.9,29.54,WNW,290,4.7,10.4,75,0.00,CLR,,0.00,1020.0,WeatherDisplay:10.37,2013-06-28 15:52:00,
2013-06-28 11:57:00,78.1,68.3,29.54,NNW,337,6.6,11.5,72,0.00,CLR,,0.00,907.0,WeatherDisplay:10.37,2013-06-28 15:57:00,
2013-06-28 12:02:00,78.0,67.8,29.54,NW,325,7.8,9.2,71,0.00,CLR,,0.00,939.0,WeatherDisplay:10.37,2013-06-28 16:02:00,
2013-06-28 12:07:00,77.7,68.7,29.54,West,276,6.2,8.1,74,0.00,CLR,,0.00,1020.0,WeatherDisplay:10.37,2013-06-28 16:07:00,
2013-06-28 12:12:00,77.6,68.3,29.54,North,355,5.8,10.4,73,0.00,CLR,,0.00,935.0,WeatherDisplay:10.37,2013-06-28 16:12:00,
2013-06-28 12:17:00,77.8,67.6,29.54,NW,312,7.5,11.5,71,0.00,BKN,,0.00,949.0,WeatherDisplay:10.37,2013-06-28 16:17:00,
2013-06-28 12:22:00,77.8,67.2,29.54,WSW,250,5.7,9.2,70,0.00,CLR,,0.00,946.0,WeatherDisplay:10.37,2013-06-28 16:22:00,
2013-06-28 12:27:00,78.0,68.2,29.54,NNW,328,5.7,9.2,72,0.00,FEW,,0.00,949.0,WeatherDisplay:10.37,2013-06-28 16:27:00,
2013-06-28 12:32:00,78.0,66.2,29.54,West,281,8.2,11.5,67,0.00,CLR,,0.00,149.0,WeatherDisplay:10.37,2013-06-28 16:32:00,
2013-06-28 12:37:00,77.7,65.9,29.54,WNW,286,7.7,11.5,67,0.00,BKN,,0.00,127.0,WeatherDisplay:10.37,2013-06-28 16:37:00,
2013-06-28 12:42:00,77.6,65.8,29.54,WNW,290,3.3,9.2,67,0.00,BKN,,0.00,155.0,WeatherDisplay:10.37,2013-06-28 16:42:00,
2013-06-28 12:47:00,77.9,66.9,29.54,NNW,338,4.8,10.4,69,0.00,BKN,,0.00,130.0,WeatherDisplay:10.37,2013-06-28 16:47:00,
2013-06-28 12:52:00,78.5,67.5,29.53,NW,326,4.8,5.8,69,0.00,BKN,,0.00,121.0,WeatherDisplay:10.37,2013-06-28 16:52:00,
2013-06-28 12:57:00,79.2,66.4,29.53,WNW,283,5.9,8.1,65,0.00,BKN,,0.00,186.0,WeatherDisplay:10.37,2013-06-28 16:57:00,
2013-06-28 13:02:00,79.2,66.9,29.53,NNW,348,6.5,10.4,66,0.00,BKN,,0.00,162.0,WeatherDisplay:10.37,2013-06-28 17:02:00,
2013-06-28 13:07:00,78.5,65.3,29.53,NNW,331,3.9,8.1,64,0.00,BKN,,0.00,172.0,WeatherDisplay:10.37,2013-06-28 17:07:00,
2013-06-28 13:12:00,78.1,66.3,29.52,WNW,301,5.0,12.0,67,0.00,BKN,,0.00,274.0,WeatherDisplay:10.37,2013-06-28 17:12:00,
2013-06-28 13:17:00,78.5,67.1,29.52,West,275,5.4,11.0,68,0.00,BKN,,0.00,176.0,WeatherDisplay:10.37,2013-06-28 17:17:00,
2013-06-28 13:22:00,78.7,66.4,29.52,WNW,298,5.0,8.0,66,0.00,BKN,,0.00,93.0,WeatherDisplay:10.37,2013-06-28 17:22:00,
2013-06-28 13:27:00,79.0,65.8,29.52,NW,313,7.0,12.0,64,0.00,BKN,,0.00,95.0,WeatherDisplay:10.37,2013-06-28 17:27:00,
2013-06-28 13:32:00,79.3,66.5,29.52,NW,311,5.0,10.0,65,0.00,BKN,,0.00,178.0,WeatherDisplay:10.37,2013-06-28 17:32:00,
2013-06-28 13:37:00,78.8,65.6,29.52,WNW,291,7.0,8.0,64,0.00,BKN,,0.00,165.0,WeatherDisplay:10.37,2013-06-28 17:37:00,
2013-06-28 13:42:00,78.4,65.2,29.52,NW,304,6.0,7.0,64,0.00,BKN,,0.00,132.0,WeatherDisplay:10.37,2013-06-28 17:42:00,
2013-06-28 13:47:00,78.7,65.9,29.52,NW,317,5.0,12.0,65,0.00,BKN,,0.00,98.0,WeatherDisplay:10.37,2013-06-28 17:47:00,
2013-06-28 13:52:00,78.5,66.2,29.52,North,349,6.0,13.0,66,0.00,FEW,,0.00,947.0,WeatherDisplay:10.37,2013-06-28 17:52:00,
2013-06-28 13:57:00,79.2,66.4,29.52,NNE,14,9.8,12.7,65,0.00,FEW,,0.00,921.0,WeatherDisplay:10.37,2013-06-28 17:57:00,
2013-06-28 14:02:00,79.2,64.6,29.52,WNW,290,6.2,10.4,61,0.00,BKN,,0.00,257.0,WeatherDisplay:10.37,2013-06-28 18:02:00,
2013-06-28 14:07:00,79.0,64.9,29.52,WNW,300,7.0,12.0,62,0.00,BKN,,0.00,127.0,WeatherDisplay:10.37,2013-06-28 18:07:00,
2013-06-28 14:12:00,79.3,63.7,29.52,NW,316,7.9,10.4,59,0.00,CLR,,0.00,998.0,WeatherDisplay:10.37,2013-06-28 18:12:00,
2013-06-28 14:17:00,79.4,66.1,29.52,NW,311,5.0,10.0,64,0.00,CLR,,0.00,1014.0,WeatherDisplay:10.37,2013-06-28 18:17:00,
2013-06-28 14:22:00,79.2,66.0,29.52,NW,319,9.0,12.0,64,0.00,CLR,,0.00,1025.0,WeatherDisplay:10.37,2013-06-28 18:22:00,
2013-06-28 14:27:00,79.0,65.3,29.52,NNW,328,6.0,8.0,63,0.00,CLR,,0.00,965.0,WeatherDisplay:10.37,2013-06-28 18:27:00,
2013-06-28 14:32:00,79.1,65.0,29.52,NNW,335,9.0,12.0,62,0.00,BKN,,0.00,128.0,WeatherDisplay:10.37,2013-06-28 18:32:00,
2013-06-28 14:37:00,78.8,65.1,29.52,NW,322,8.0,12.0,63,0.00,CLR,,0.00,970.0,WeatherDisplay:10.37,2013-06-28 18:37:00,
2013-06-28 14:42:00,79.1,64.5,29.52,NW,316,8.0,14.0,61,0.00,CLR,,0.00,939.0,WeatherDisplay:10.37,2013-06-28 18:42:00,
2013-06-28 14:47:00,79.2,63.2,29.52,NW,305,7.0,12.0,58,0.00,CLR,,0.00,942.0,WeatherDisplay:10.37,2013-06-28 18:47:00,
2013-06-28 14:52:00,79.6,65.4,29.52,NW,317,5.0,11.5,62,0.00,CLR,,0.00,1023.0,WeatherDisplay:10.37,2013-06-28 18:52:00,
2013-06-28 14:57:00,79.9,64.8,29.52,NNW,331,5.7,13.8,60,0.00,BKN,,0.00,139.0,WeatherDisplay:10.37,2013-06-28 18:57:00,
2013-06-28 15:02:00,78.2,65.0,29.52,WNW,303,6.0,9.0,64,0.00,BKN,,0.00,193.0,WeatherDisplay:10.37,2013-06-28 19:02:00,
2013-06-28 15:07:00,77.1,65.3,29.52,NW,315,5.0,6.0,67,0.00,BKN,,0.00,221.0,WeatherDisplay:10.37,2013-06-28 19:07:00,
2013-06-28 15:12:00,77.2,64.9,29.52,NW,321,6.0,8.0,66,0.00,BKN,,0.00,271.0,WeatherDisplay:10.37,2013-06-28 19:12:00,
2013-06-28 15:17:00,77.4,64.3,29.51,NNE,15,3.6,8.1,64,0.00,BKN,,0.00,185.0,WeatherDisplay:10.37,2013-06-28 19:17:00,
2013-06-28 15:22:00,77.6,64.9,29.50,NNW,333,7.0,12.0,65,0.00,CLR,,0.00,1005.0,WeatherDisplay:10.37,2013-06-28 19:22:00,
2013-06-28 15:27:00,77.8,63.3,29.50,NNW,328,6.0,9.0,61,0.00,BKN,,0.00,267.0,WeatherDisplay:10.37,2013-06-28 19:27:00,
2013-06-28 15:32:00,78.1,64.0,29.49,NNW,328,7.5,11.5,62,0.00,CLR,,0.00,902.0,WeatherDisplay:10.37,2013-06-28 19:32:00,
2013-06-28 15:37:00,78.5,63.5,29.49,North,5,8.1,10.4,60,0.00,CLR,,0.00,135.0,WeatherDisplay:10.37,2013-06-28 19:37:00,
2013-06-28 15:42:00,78.2,64.6,29.50,North,351,8.0,12.0,63,0.00,CLR,,0.00,868.0,WeatherDisplay:10.37,2013-06-28 19:42:00,
2013-06-28 15:47:00,77.6,64.0,29.51,NNW,344,8.0,12.0,63,0.00,BKN,,0.00,86.0,WeatherDisplay:10.37,2013-06-28 19:47:00,
2013-06-28 15:52:00,76.6,64.4,29.52,NNW,338,5.0,10.0,66,0.00,BKN,,0.00,100.0,WeatherDisplay:10.37,2013-06-28 19:52:00,
2013-06-28 15:57:00,75.9,64.1,29.51,NNW,329,5.0,5.0,67,0.00,BKN,,0.00,127.0,WeatherDisplay:10.37,2013-06-28 19:57:00,
2013-06-28 16:02:00,75.4,63.7,29.51,NNW,340,5.0,7.0,67,0.00,BKN,,0.00,111.0,WeatherDisplay:10.37,2013-06-28 20:02:00,
2013-06-28 16:07:00,75.3,64.0,29.52,NNW,341,3.0,8.0,68,0.00,BKN,,0.00,107.0,WeatherDisplay:10.37,2013-06-28 20:07:00,
2013-06-28 16:12:00,75.1,65.4,29.53,NNW,329,8.0,15.0,72,0.00,OVC,,0.00,37.0,WeatherDisplay:10.37,2013-06-28 20:12:00,
2013-06-28 16:17:00,74.6,67.7,29.53,NW,320,8.0,12.0,79,0.01,RA,,0.04,25.0,WeatherDisplay:10.37,2013-06-28 20:17:00,
2013-06-28 16:22:00,72.5,65.7,29.53,WNW,291,7.0,9.0,79,0.00,RA,,0.06,21.0,WeatherDisplay:10.37,2013-06-28 20:22:00,
2013-06-28 16:27:00,69.8,64.4,29.52,West,270,5.0,7.0,83,0.00,RA,,0.06,19.0,WeatherDisplay:10.37,2013-06-28 20:27:00,
2013-06-28 16:32:00,68.5,63.4,29.52,West,270,5.0,7.0,84,0.00,OVC,,0.06,21.0,WeatherDisplay:10.37,2013-06-28 20:32:00,
2013-06-28 16:37:00,67.8,64.1,29.52,West,262,2.0,5.0,88,0.00,OVC,,0.06,25.0,WeatherDisplay:10.37,2013-06-28 20:37:00,
2013-06-28 16:42:00,67.5,64.1,29.52,West,268,3.0,6.0,89,0.06,OVC,,0.06,30.0,WeatherDisplay:10.37,2013-06-28 20:42:00,
2013-06-28 16:47:00,67.4,64.1,29.53,West,277,3.0,5.0,89,0.00,OVC,,0.06,33.0,WeatherDisplay:10.37,2013-06-28 20:47:00,
2013-06-28 16:52:00,67.4,64.4,29.53,WNW,290,3.0,7.0,90,0.00,OVC,,0.06,37.0,WeatherDisplay:10.37,2013-06-28 20:52:00,
2013-06-28 16:57:00,67.7,64.6,29.53,WNW,291,1.0,2.0,90,0.00,OVC,,0.06,37.0,WeatherDisplay:10.37,2013-06-28 20:57:00,
2013-06-28 17:02:00,67.7,64.7,29.53,WNW,283,3.9,6.9,90,0.07,RA,,0.07,32.0,WeatherDisplay:10.37,2013-06-28 21:02:00,
2013-06-28 17:07:00,67.7,65.3,29.53,West,273,2.0,3.5,92,0.08,RA,,0.08,32.0,WeatherDisplay:10.37,2013-06-28 21:07:00,
2013-06-28 17:12:00,67.8,65.7,29.53,WSW,255,1.5,3.5,93,0.09,RA,,0.09,39.0,WeatherDisplay:10.37,2013-06-28 21:12:00,
2013-06-28 17:17:00,67.8,65.7,29.53,West,262,1.9,2.3,93,0.07,RA,,0.10,49.0,WeatherDisplay:10.37,2013-06-28 21:17:00,
2013-06-28 17:22:00,67.8,65.7,29.53,West,268,1.8,3.5,93,0.04,RA,,0.10,67.0,WeatherDisplay:10.37,2013-06-28 21:22:00,
2013-06-28 17:27:00,67.7,65.6,29.52,WSW,254,3.7,6.9,93,0.04,BKN,,0.10,104.0,WeatherDisplay:10.37,2013-06-28 21:27:00,
2013-06-28 17:32:00,67.7,65.6,29.52,West,271,3.9,4.0,93,0.04,BKN,,0.10,153.0,WeatherDisplay:10.37,2013-06-28 21:32:00,
2013-06-28 17:37:00,68.3,66.5,29.52,WNW,293,4.1,5.8,94,0.04,BKN,,0.10,221.0,WeatherDisplay:10.37,2013-06-28 21:37:00,
2013-06-28 17:42:00,68.8,66.7,29.52,NW,304,3.4,4.6,93,0.04,BKN,,0.10,209.0,WeatherDisplay:10.37,2013-06-28 21:42:00,
2013-06-28 17:47:00,69.3,67.2,29.52,WNW,292,2.6,5.8,93,0.04,BKN,,0.10,183.0,WeatherDisplay:10.37,2013-06-28 21:47:00,
2013-06-28 17:52:00,69.5,67.4,29.52,West,264,5.0,7.0,93,0.04,BKN,,0.10,197.0,WeatherDisplay:10.37,2013-06-28 21:52:00,
2013-06-28 17:57:00,69.3,66.6,29.52,NW,307,3.4,4.6,91,0.04,BKN,,0.10,188.0,WeatherDisplay:10.37,2013-06-28 21:57:00,
2013-06-28 18:02:00,69.1,66.0,29.52,WNW,284,3.9,6.0,90,0.03,BKN,,0.10,193.0,WeatherDisplay:10.37,2013-06-28 22:02:00,
2013-06-28 18:07:00,69.4,66.3,29.52,West,269,3.8,5.0,90,0.02,BKN,,0.10,186.0,WeatherDisplay:10.37,2013-06-28 22:07:00,
2013-06-28 18:12:00,69.3,65.9,29.51,West,281,2.9,3.5,89,0.01,BKN,,0.10,174.0,WeatherDisplay:10.37,2013-06-28 22:12:00,
2013-06-28 18:17:00,69.7,66.6,29.51,WNW,296,3.1,4.6,90,0.00,BKN,,0.10,234.0,WeatherDisplay:10.37,2013-06-28 22:17:00,
2013-06-28 18:22:00,70.5,67.1,29.52,West,265,4.1,5.0,89,0.00,CLR,,0.10,411.0,WeatherDisplay:10.37,2013-06-28 22:22:00,
2013-06-28 18:27:00,70.9,67.2,29.52,West,281,0.8,4.6,88,0.00,CLR,,0.10,381.0,WeatherDisplay:10.37,2013-06-28 22:27:00,
2013-06-28 18:32:00,71.4,67.0,29.52,WSW,258,3.1,5.8,86,0.00,CLR,,0.10,482.0,WeatherDisplay:10.37,2013-06-28 22:32:00,
2013-06-28 18:37:00,71.8,66.7,29.52,NNW,329,1.9,3.5,84,0.00,SCT,,0.10,200.0,WeatherDisplay:10.37,2013-06-28 22:37:00,
2013-06-28 18:42:00,72.2,67.4,29.51,WNW,288,2.2,4.0,85,0.00,BKN,,0.10,111.0,WeatherDisplay:10.37,2013-06-28 22:42:00,
2013-06-28 18:47:00,72.2,66.4,29.52,NW,311,2.3,3.5,82,0.00,BKN,,0.10,120.0,WeatherDisplay:10.37,2013-06-28 22:47:00,
2013-06-28 18:52:00,72.1,65.9,29.52,WNW,284,2.3,3.0,81,0.00,SCT,,0.10,176.0,WeatherDisplay:10.37,2013-06-28 22:52:00,
2013-06-28 18:57:00,72.2,65.3,29.52,WNW,291,2.4,5.8,79,0.00,CLR,,0.10,297.0,WeatherDisplay:10.37,2013-06-28 22:57:00,
2013-06-28 19:02:00,72.6,65.3,29.52,NW,308,5.4,5.8,78,0.00,CLR,,0.10,311.0,WeatherDisplay:10.37,2013-06-28 23:02:00,
2013-06-28 19:07:00,72.7,63.9,29.53,NW,309,5.5,8.0,74,0.00,SCT,,0.10,214.0,WeatherDisplay:10.37,2013-06-28 23:07:00,
2013-06-28 19:12:00,72.5,63.7,29.53,NNW,340,6.7,6.7,74,0.01,RA,,0.11,84.0,WeatherDisplay:10.37,2013-06-28 23:12:00,
2013-06-28 19:17:00,72.0,63.6,29.53,NE,34,2.8,5.8,75,0.01,RA,,0.11,162.0,WeatherDisplay:10.37,2013-06-28 23:17:00,
2013-06-28 19:22:00,71.9,63.5,29.53,North,5,2.3,6.9,75,0.01,SCT,,0.11,125.0,WeatherDisplay:10.37,2013-06-28 23:22:00,
2013-06-28 19:27:00,72.3,63.9,29.53,NW,319,3.8,5.8,75,0.01,CLR,,0.11,234.0,WeatherDisplay:10.37,2013-06-28 23:27:00,
2013-06-28 19:32:00,72.6,64.2,29.53,NNW,327,4.8,6.9,75,0.01,SCT,,0.11,127.0,WeatherDisplay:10.37,2013-06-28 23:32:00,
2013-06-28 19:37:00,72.8,64.0,29.54,NNW,333,7.2,10.0,74,0.01,SCT,,0.11,144.0,WeatherDisplay:10.37,2013-06-28 23:37:00,
2013-06-28 19:42:00,72.5,63.0,29.54,North,5,7.1,11.5,72,0.01,BKN,,0.11,79.0,WeatherDisplay:10.37,2013-06-28 23:42:00,
2013-06-28 19:47:00,72.0,62.9,29.54,NW,320,3.4,6.9,73,0.01,BKN,,0.11,69.0,WeatherDisplay:10.37,2013-06-28 23:47:00,
2013-06-28 19:52:00,71.6,62.9,29.54,NNW,344,5.2,8.1,74,0.01,BKN,,0.11,60.0,WeatherDisplay:10.37,2013-06-28 23:52:00,
2013-06-28 19:57:00,71.3,63.0,29.54,WNW,287,3.6,5.8,75,0.01,BKN,,0.11,46.0,WeatherDisplay:10.37,2013-06-28 23:57:00,
2013-06-28 20:02:00,71.1,62.8,29.55,NNW,337,4.9,4.9,75,0.01,BKN,,0.11,40.0,WeatherDisplay:10.37,2013-06-29 00:02:00,
2013-06-28 20:07:00,70.9,63.0,29.55,WNW,289,3.9,5.8,76,0.01,BKN,,0.11,35.0,WeatherDisplay:10.37,2013-06-29 00:07:00,
2013-06-28 20:12:00,70.7,63.1,29.55,WNW,296,5.2,8.1,77,0.00,BKN,,0.11,21.0,WeatherDisplay:10.37,2013-06-29 00:12:00,
2013-06-28 20:17:00,70.6,63.0,29.55,West,277,4.4,6.9,77,0.00,BKN,,0.11,21.0,WeatherDisplay:10.37,2013-06-29 00:17:00,
2013-06-28 20:22:00,70.5,62.9,29.56,NW,309,5.3,12.0,77,0.00,BKN,,0.11,12.0,WeatherDisplay:10.37,2013-06-29 00:22:00,
2013-06-28 20:27:00,70.4,63.2,29.56,WNW,284,6.7,13.8,78,0.00,BKN,,0.11,14.0,WeatherDisplay:10.37,2013-06-29 00:27:00,
2013-06-28 20:32:00,70.2,63.4,29.55,West,270,4.2,11.5,79,0.00,BKN,,0.11,11.0,WeatherDisplay:10.37,2013-06-29 00:32:00,
2013-06-28 20:37:00,69.9,63.4,29.55,WSW,252,5.9,11.5,80,0.00,BKN,,0.11,9.0,WeatherDisplay:10.37,2013-06-29 00:37:00,
2013-06-28 20:42:00,69.6,63.2,29.55,WNW,293,5.2,10.4,80,0.00,BKN,,0.11,9.0,WeatherDisplay:10.37,2013-06-29 00:42:00,
2013-06-28 20:47:00,69.3,62.9,29.54,WSW,242,4.2,5.8,80,0.00,BKN,,0.11,7.0,WeatherDisplay:10.37,2013-06-29 00:47:00,
2013-06-28 20:52:00,69.0,62.2,29.55,West,272,4.3,11.5,79,0.00,BKN,,0.11,5.0,WeatherDisplay:10.37,2013-06-29 00:52:00,
2013-06-28 20:57:00,68.6,61.5,29.55,WSW,238,3.8,6.9,78,0.00,CLR,,0.11,0.0,WeatherDisplay:10.37,2013-06-29 00:57:00,
2013-06-28 21:02:00,68.3,61.5,29.54,West,273,1.6,3.5,79,0.00,CLR,,0.11,0.0,WeatherDisplay:10.37,2013-06-29 01:02:00,
2013-06-28 21:07:00,67.8,60.3,29.55,West,261,4.7,8.1,77,0.00,CLR,,0.11,0.0,WeatherDisplay:10.37,2013-06-29 01:07:00,
2013-06-28 21:12:00,67.5,59.7,29.55,WSW,246,4.8,8.1,76,0.00,CLR,,0.11,0.0,WeatherDisplay:10.37,2013-06-29 01:12:00,
2013-06-28 21:17:00,67.1,60.0,29.55,WSW,257,3.1,5.0,78,0.00,CLR,,0.11,0.0,WeatherDisplay:10.37,2013-06-29 01:17:00,
2013-06-28 21:22:00,66.8,59.4,29.55,SW,228,3.4,7.0,77,0.00,CLR,,0.11,0.0,WeatherDisplay:10.37,2013-06-29 01:22:00,
2013-06-28 21:27:00,66.5,59.4,29.55,WNW,290,1.9,9.2,78,0.00,CLR,,0.11,0.0,WeatherDisplay:10.37,2013-06-29 01:27:00,
2013-06-28 21:32:00,66.2,59.5,29.54,West,269,2.8,6.9,79,0.00,CLR,,0.11,0.0,WeatherDisplay:10.37,2013-06-29 01:32:00,
2013-06-28 21:37:00,65.8,59.5,29.54,WSW,252,4.6,6.9,80,0.00,CLR,,0.11,0.0,WeatherDisplay:10.37,2013-06-29 01:37:00,
2013-06-28 21:42:00,65.4,59.8,29.54,West,273,1.2,3.5,82,0.00,CLR,,0.11,0.0,WeatherDisplay:10.37,2013-06-29 01:42:00,
2013-06-28 21:47:00,65.1,59.8,29.54,WNW,285,1.9,3.5,83,0.00,CLR,,0.11,0.0,WeatherDisplay:10.37,2013-06-29 01:47:00,
2013-06-28 21:52:00,64.9,59.6,29.54,West,273,3.2,3.5,83,0.00,CLR,,0.11,0.0,WeatherDisplay:10.37,2013-06-29 01:52:00,
2013-06-28 21:57:00,64.8,59.9,29.54,West,263,1.3,3.5,84,0.00,CLR,,0.11,0.0,WeatherDisplay:10.37,2013-06-29 01:57:00,
2013-06-28 22:02:00,64.6,60.0,29.54,WSW,256,3.4,4.6,85,0.00,CLR,,0.11,0.0,WeatherDisplay:10.37,2013-06-29 02:02:00,
2013-06-28 22:07:00,64.5,60.2,29.54,West,265,3.8,7.0,86,0.00,CLR,,0.11,0.0,WeatherDisplay:10.37,2013-06-29 02:07:00,
2013-06-28 22:12:00,64.4,60.1,29.54,West,263,1.5,3.5,86,0.00,CLR,,0.11,0.0,WeatherDisplay:10.37,2013-06-29 02:12:00,
2013-06-28 22:17:00,64.3,60.3,29.55,West,263,2.3,5.0,87,0.00,CLR,,0.11,0.0,WeatherDisplay:10.37,2013-06-29 02:17:00,
2013-06-28 22:22:00,64.3,60.3,29.55,West,266,1.5,5.8,87,0.00,CLR,,0.11,0.0,WeatherDisplay:10.37,2013-06-29 02:22:00,
2013-06-28 22:27:00,64.1,60.5,29.55,WSW,254,1.6,3.5,88,0.00,CLR,,0.11,0.0,WeatherDisplay:10.37,2013-06-29 02:27:00,
2013-06-28 22:32:00,64.0,60.4,29.55,WSW,238,1.4,3.5,88,0.00,CLR,,0.11,0.0,WeatherDisplay:10.37,2013-06-29 02:32:00,
2013-06-28 22:37:00,63.9,60.6,29.55,WSW,251,0.3,3.5,89,0.00,CLR,,0.11,0.0,WeatherDisplay:10.37,2013-06-29 02:37:00,
2013-06-28 22:42:00,63.9,60.6,29.55,WSW,251,0.6,2.3,89,0.00,CLR,,0.11,0.0,WeatherDisplay:10.37,2013-06-29 02:42:00,
2013-06-28 22:47:00,63.8,60.8,29.55,WSW,245,1.3,3.5,90,0.00,CLR,,0.11,0.0,WeatherDisplay:10.37,2013-06-29 02:47:00,
2013-06-28 22:52:00,63.7,60.7,29.55,WSW,254,2.6,3.5,90,0.00,CLR,,0.11,0.0,WeatherDisplay:10.37,2013-06-29 02:52:00,
2013-06-28 22:57:00,63.7,60.7,29.55,WSW,254,3.1,4.6,90,0.00,CLR,,0.11,0.0,WeatherDisplay:10.37,2013-06-29 02:57:00,
2013-06-28 23:02:00,63.7,60.7,29.55,West,261,0.1,1.1,90,0.00,CLR,,0.11,0.0,WeatherDisplay:10.37,2013-06-29 03:02:00,
2013-06-28 23:07:00,63.7,60.7,29.55,West,261,1.9,2.3,90,0.00,CLR,,0.11,0.0,WeatherDisplay:10.37,2013-06-29 03:07:00,
2013-06-28 23:12:00,63.7,60.7,29.54,West,261,2.1,4.0,90,0.00,CLR,,0.11,0.0,WeatherDisplay:10.37,2013-06-29 03:12:00,
2013-06-28 23:17:00,63.7,60.7,29.54,WSW,253,1.5,3.5,90,0.00,CLR,,0.11,0.0,WeatherDisplay:10.37,2013-06-29 03:17:00,
2013-06-28 23:22:00,63.7,60.7,29.54,WSW,239,1.5,3.5,90,0.00,CLR,,0.11,0.0,WeatherDisplay:10.37,2013-06-29 03:22:00,
2013-06-28 23:27:00,63.7,61.0,29.54,WSW,249,3.3,4.6,91,0.00,CLR,,0.11,0.0,WeatherDisplay:10.37,2013-06-29 03:27:00,
2013-06-28 23:32:00,63.6,60.9,29.54,SW,219,1.2,2.3,91,0.00,CLR,,0.11,0.0,WeatherDisplay:10.37,2013-06-29 03:32:00,
2013-06-28 23:37:00,63.6,60.9,29.54,WSW,240,0.6,2.3,91,0.00,CLR,,0.11,0.0,WeatherDisplay:10.37,2013-06-29 03:37:00,
2013-06-28 23:42:00,63.6,61.2,29.54,SW,236,1.6,3.5,92,0.00,CLR,,0.11,0.0,WeatherDisplay:10.37,2013-06-29 03:42:00,
2013-06-28 23:47:00,63.6,61.2,29.54,WSW,240,1.0,2.3,92,0.00,CLR,,0.11,0.0,WeatherDisplay:10.37,2013-06-29 03:47:00,
2013-06-28 23:52:00,63.6,61.2,29.54,SSW,205,0.8,2.3,92,0.00,CLR,,0.11,0.0,WeatherDisplay:10.37,2013-06-29 03:52:00,
2013-06-28 23:57:00,63.5,61.1,29.54,WSW,250,1.9,3.5,92,0.00,CLR,,0.11,0.0,WeatherDisplay:10.37,2013-06-29 03:57:00,